createdAt,value
2023-09-22T00:00:02.537Z,99619.94
2023-09-22T00:00:34.582Z,99613.34
2023-09-22T00:01:06.606Z,99622.38
2023-09-22T00:01:38.635Z,99616.91
2023-09-22T00:02:10.733Z,99616.91
2023-09-22T00:02:46.450Z,99611.97
2023-09-22T00:03:18.799Z,99618.56
2023-09-22T00:03:51.162Z,99614.72
2023-09-22T00:04:23.196Z,99611.16
2023-09-22T00:04:55.472Z,99611.13
2023-09-22T00:05:27.567Z,99608.38
2023-09-22T00:05:59.716Z,99611.97
2023-09-22T00:06:31.743Z,99616.63
2023-09-22T00:07:03.713Z,99616.06
2023-09-22T00:07:35.674Z,99614.41
2023-09-22T00:08:08.049Z,99607.84
2023-09-22T00:08:40.322Z,99614.41
2023-09-22T00:09:12.461Z,99610.53
2023-09-22T00:09:44.417Z,99611.09
2023-09-22T00:10:16.540Z,99612.50
2023-09-22T00:10:48.609Z,99609.75
2023-09-22T00:11:20.597Z,99606.75
2023-09-22T00:11:52.516Z,99606.75
2023-09-22T00:12:24.453Z,99609.47
2023-09-22T00:12:56.531Z,99603.38
2023-09-22T00:13:28.456Z,99605.31
2023-09-22T00:14:00.398Z,99607.00
2023-09-22T00:14:32.512Z,99610.03
2023-09-22T00:15:07.175Z,99611.09
2023-09-22T00:15:39.151Z,99608.88
2023-09-22T00:16:11.354Z,99614.34
2023-09-22T00:16:44.157Z,99615.19
2023-09-22T00:17:17.527Z,99609.47
2023-09-22T00:17:49.677Z,99610.56
2023-09-22T00:18:21.916Z,99608.63
2023-09-22T00:18:53.856Z,99608.59
2023-09-22T00:19:26.192Z,99607.22
2023-09-22T00:19:58.104Z,99608.88
2023-09-22T00:20:31.391Z,99608.88
2023-09-22T00:21:05.850Z,99609.69
2023-09-22T00:21:37.952Z,99611.31
2023-09-22T00:22:11.201Z,99606.34
2023-09-22T00:22:44.473Z,99602.78
2023-09-22T00:23:16.415Z,99603.34
2023-09-22T00:23:48.350Z,99605.53
2023-09-22T00:24:21.195Z,99607.19
2023-09-22T00:24:53.216Z,99606.34
2023-09-22T00:25:25.194Z,99612.09
2023-09-22T00:25:57.125Z,99619.22
2023-09-22T00:26:29.039Z,99609.34
2023-09-22T00:27:01.079Z,99607.19
2023-09-22T00:27:33.350Z,99605.53
2023-09-22T00:28:05.660Z,99611.53
2023-09-22T00:28:37.629Z,99613.19
2023-09-22T00:29:09.573Z,99616.69
2023-09-22T00:29:41.732Z,99618.06
2023-09-22T00:30:13.875Z,99607.63
2023-09-22T00:30:45.869Z,99610.66
2023-09-22T00:31:18.053Z,99613.94
2023-09-22T00:31:50.123Z,99612.81
2023-09-22T00:32:22.595Z,99614.72
2023-09-22T00:32:54.684Z,99615.56
2023-09-22T00:33:26.809Z,99613.63
2023-09-22T00:33:58.868Z,99613.63
2023-09-22T00:34:32.381Z,99608.16
2023-09-22T00:35:05.276Z,99618.25
2023-09-22T00:35:37.271Z,99613.34
2023-09-22T00:36:09.636Z,99617.47
2023-09-22T00:36:41.628Z,99610.34
2023-09-22T00:37:13.975Z,99610.03
2023-09-22T00:37:45.898Z,99620.72
2023-09-22T00:38:17.925Z,99610.81
2023-09-22T00:38:49.879Z,99610.31
2023-09-22T00:39:22.151Z,99614.41
2023-09-22T00:39:55.345Z,99611.06
2023-09-22T00:40:27.375Z,99612.72
2023-09-22T00:40:59.335Z,99612.72
2023-09-22T00:41:31.665Z,99612.72
2023-09-22T00:42:06.849Z,99608.06
2023-09-22T00:42:38.844Z,99605.84
2023-09-22T00:43:11.780Z,99606.09
2023-09-22T00:43:44.074Z,99603.88
2023-09-22T00:44:16.642Z,99608.00
2023-09-22T00:44:48.722Z,99605.22
2023-09-22T00:45:21.142Z,99603.88
2023-09-22T00:45:54.357Z,99605.25
2023-09-22T00:46:27.416Z,99605.78
2023-09-22T00:47:00.790Z,99606.63
2023-09-22T00:47:32.821Z,99599.75
2023-09-22T00:48:05.626Z,99604.06
2023-09-22T00:48:38.887Z,99602.97
2023-09-22T00:49:11.421Z,99594.22
2023-09-22T00:49:44.162Z,99600.78
2023-09-22T00:50:16.261Z,99599.13
2023-09-22T00:50:49.126Z,99597.47
2023-09-22T00:51:21.153Z,99589.53
2023-09-22T00:51:53.332Z,99597.47
2023-09-22T00:52:26.690Z,99592.78
2023-09-22T00:52:58.744Z,99596.34
2023-09-22T00:53:32.867Z,99601.59
2023-09-22T00:54:04.951Z,99599.13
2023-09-22T00:54:37.779Z,99595.31
2023-09-22T00:55:10.786Z,99602.44
2023-09-22T00:55:42.958Z,99597.75
2023-09-22T00:56:16.967Z,99594.19
2023-09-22T00:56:49.204Z,99603.47
2023-09-22T00:57:21.581Z,99605.97
2023-09-22T00:57:53.648Z,99604.03
2023-09-22T00:58:25.660Z,99602.97
2023-09-22T00:58:57.895Z,99601.03
2023-09-22T00:59:29.862Z,99602.09
2023-09-22T01:00:01.838Z,99600.44
2023-09-22T01:00:34.473Z,99602.34
2023-09-22T01:01:06.559Z,99610.88
2023-09-22T01:01:38.708Z,99606.69
2023-09-22T01:02:12.404Z,99604.84
2023-09-22T01:02:44.524Z,99605.91
2023-09-22T01:03:17.158Z,99606.41
2023-09-22T01:03:55.033Z,99604.75
2023-09-22T01:04:27.849Z,99596.75
2023-09-22T01:04:59.833Z,99602.56
2023-09-22T01:05:34.233Z,99608.31
2023-09-22T01:06:10.403Z,99606.69
2023-09-22T01:06:44.847Z,99615.97
2023-09-22T01:07:17.094Z,99615.66
2023-09-22T01:07:49.009Z,99613.72
2023-09-22T01:08:20.946Z,99617.06
2023-09-22T01:08:52.872Z,99612.41
2023-09-22T01:09:26.547Z,99608.31
2023-09-22T01:10:08.709Z,99618.47
2023-09-22T01:10:43.908Z,99616.47
2023-09-22T01:11:15.839Z,99619.81
2023-09-22T01:11:47.797Z,99615.97
2023-09-22T01:12:19.786Z,99611.53
2023-09-22T01:12:52.450Z,99610.97
2023-09-22T01:13:24.382Z,99607.13
2023-09-22T01:13:56.313Z,99604.47
2023-09-22T01:14:28.288Z,99613.25
2023-09-22T01:15:01.613Z,99608.31
2023-09-22T01:15:38.330Z,99608.59
2023-09-22T01:16:10.473Z,99614.00
2023-09-22T01:16:42.850Z,99619.47
2023-09-22T01:17:15.064Z,99606.88
2023-09-22T01:17:47.048Z,99611.53
2023-09-22T01:18:19.095Z,99609.88
2023-09-22T01:18:51.108Z,99618.34
2023-09-22T01:19:23.079Z,99616.47
2023-09-22T01:19:55.002Z,99619.22
2023-09-22T01:20:26.930Z,99614.81
2023-09-22T01:20:59.303Z,99616.16
2023-09-22T01:21:32.995Z,99620.00
2023-09-22T01:22:06.598Z,99623.81
2023-09-22T01:22:38.617Z,99630.38
2023-09-22T01:23:13.383Z,99622.44
2023-09-22T01:23:45.441Z,99621.88
2023-09-22T01:24:17.523Z,99621.34
2023-09-22T01:24:49.775Z,99630.13
2023-09-22T01:25:21.697Z,99616.41
2023-09-22T01:25:53.807Z,99631.16
2023-09-22T01:26:25.801Z,99620.53
2023-09-22T01:26:57.786Z,99621.88
2023-09-22T01:27:29.788Z,99627.91
2023-09-22T01:28:01.823Z,99626.25
2023-09-22T01:28:34.078Z,99621.56
2023-09-22T01:29:09.813Z,99619.59
2023-09-22T01:29:41.784Z,99624.25
2023-09-22T01:30:15.737Z,99620.94
2023-09-22T01:30:48.381Z,99619.91
2023-09-22T01:31:20.498Z,99625.38
2023-09-22T01:31:52.567Z,99624.03
2023-09-22T01:32:24.650Z,99620.47
2023-09-22T01:32:56.661Z,99616.63
2023-09-22T01:33:29.222Z,99615.53
2023-09-22T01:34:04.691Z,99617.69
2023-09-22T01:34:37.005Z,99618.53
2023-09-22T01:35:09.724Z,99624.75
2023-09-22T01:35:42.065Z,99619.00
2023-09-22T01:36:17.198Z,99619.00
2023-09-22T01:36:49.202Z,99622.56
2023-09-22T01:37:30.004Z,99619.00
2023-09-22T01:38:14.340Z,99615.16
2023-09-22T01:38:46.450Z,99615.16
2023-09-22T01:39:19.138Z,99614.84
2023-09-22T01:39:52.292Z,99615.41
2023-09-22T01:40:24.349Z,99615.38
2023-09-22T01:40:59.272Z,99611.28
2023-09-22T01:41:31.367Z,99611.81
2023-09-22T01:42:03.472Z,99609.06
2023-09-22T01:42:36.122Z,99618.34
2023-09-22T01:43:08.098Z,99617.28
2023-09-22T01:43:40.422Z,99615.06
2023-09-22T01:44:12.409Z,99613.41
2023-09-22T01:44:44.444Z,99624.41
2023-09-22T01:45:16.882Z,99624.09
2023-09-22T01:45:48.976Z,99621.88
2023-09-22T01:46:21.173Z,99614.50
2023-09-22T01:46:53.193Z,99616.97
2023-09-22T01:47:25.227Z,99608.41
2023-09-22T01:47:57.193Z,99617.41
2023-09-22T01:48:29.197Z,99617.16
2023-09-22T01:49:01.185Z,99614.75
2023-09-22T01:49:33.325Z,99614.75
2023-09-22T01:50:05.893Z,99612.84
2023-09-22T01:50:41.861Z,99612.00
2023-09-22T01:51:13.769Z,99611.16
2023-09-22T01:51:45.709Z,99608.94
2023-09-22T01:52:18.109Z,99610.09
2023-09-22T01:52:50.115Z,99617.97
2023-09-22T01:53:22.040Z,99607.84
2023-09-22T01:53:56.628Z,99603.16
2023-09-22T01:54:28.660Z,99606.47
2023-09-22T01:55:00.669Z,99610.59
2023-09-22T01:55:33.084Z,99606.84
2023-09-22T01:56:06.986Z,99601.63
2023-09-22T01:56:38.906Z,99608.41
2023-09-22T01:57:10.819Z,99607.38
2023-09-22T01:57:42.880Z,99610.59
2023-09-22T01:58:14.836Z,99611.09
2023-09-22T01:58:46.944Z,99613.28
2023-09-22T01:59:18.953Z,99614.94
2023-09-22T01:59:50.965Z,99615.75
2023-09-22T02:00:22.914Z,99614.94
2023-09-22T02:00:55.314Z,99617.16
2023-09-22T02:01:27.367Z,99618.22
2023-09-22T02:01:59.401Z,99616.06
2023-09-22T02:02:31.719Z,99612.44
2023-09-22T02:03:04.364Z,99618.75
2023-09-22T02:03:36.497Z,99617.09
2023-09-22T02:04:09.077Z,99619.56
2023-09-22T02:04:41.506Z,99614.66
2023-09-22T02:05:15.796Z,99619.84
2023-09-22T02:05:47.814Z,99628.03
2023-09-22T02:06:19.755Z,99625.31
2023-09-22T02:06:53.027Z,99624.78
2023-09-22T02:07:25.037Z,99620.41
2023-09-22T02:07:58.489Z,99625.88
2023-09-22T02:08:30.398Z,99630.22
2023-09-22T02:09:02.898Z,99627.53
2023-09-22T02:09:35.354Z,99626.19
2023-09-22T02:10:08.037Z,99616.59
2023-09-22T02:10:39.967Z,99626.41
2023-09-22T02:11:13.169Z,99633.00
2023-09-22T02:11:45.226Z,99629.97
2023-09-22T02:12:17.167Z,99623.91
2023-09-22T02:12:49.236Z,99632.69
2023-09-22T02:13:21.218Z,99630.78
2023-09-22T02:13:53.126Z,99629.38
2023-09-22T02:14:25.050Z,99621.69
2023-09-22T02:14:57.838Z,99633.41
2023-09-22T02:15:29.800Z,99623.03
2023-09-22T02:16:02.079Z,99619.78
2023-09-22T02:16:34.183Z,99627.69
2023-09-22T02:17:06.181Z,99629.59
2023-09-22T02:17:39.404Z,99625.22
2023-09-22T02:18:12.962Z,99627.44
2023-09-22T02:18:45.263Z,99625.25
2023-09-22T02:19:17.507Z,99631.25
2023-09-22T02:19:49.453Z,99623.28
2023-09-22T02:20:24.603Z,99621.97
2023-09-22T02:20:56.508Z,99627.16
2023-09-22T02:21:28.616Z,99625.78
2023-09-22T02:22:03.147Z,99631.72
2023-09-22T02:22:35.100Z,99628.50
2023-09-22T02:23:07.011Z,99629.59
2023-09-22T02:23:42.216Z,99626.34
2023-09-22T02:24:14.174Z,99634.56
2023-09-22T02:24:47.087Z,99630.06
2023-09-22T02:25:19.514Z,99633.41
2023-09-22T02:25:51.424Z,99628.50
2023-09-22T02:26:23.375Z,99632.34
2023-09-22T02:26:55.318Z,99636.97
2023-09-22T02:27:27.784Z,99627.94
2023-09-22T02:28:00.221Z,99626.25
2023-09-22T02:28:32.172Z,99624.59
2023-09-22T02:29:04.161Z,99625.44
2023-09-22T02:29:36.112Z,99624.13
2023-09-22T02:30:09.471Z,99614.50
2023-09-22T02:30:41.469Z,99623.53
2023-09-22T02:31:13.835Z,99616.41
2023-09-22T02:31:46.250Z,99627.88
2023-09-22T02:32:18.262Z,99613.09
2023-09-22T02:32:50.783Z,99619.66
2023-09-22T02:33:22.867Z,99623.53
2023-09-22T02:33:54.901Z,99627.28
2023-09-22T02:34:26.899Z,99624.03
2023-09-22T02:34:59.357Z,99617.75
2023-09-22T02:35:31.264Z,99625.13
2023-09-22T02:36:06.068Z,99616.66
2023-09-22T02:36:39.934Z,99619.66
2023-09-22T02:37:11.861Z,99622.66
2023-09-22T02:37:43.862Z,99618.00
2023-09-22T02:38:15.779Z,99613.94
2023-09-22T02:38:47.743Z,99618.00
2023-09-22T02:39:19.652Z,99613.88
2023-09-22T02:39:51.654Z,99618.53
2023-09-22T02:40:23.587Z,99610.81
2023-09-22T02:40:55.539Z,99614.97
2023-09-22T02:41:27.725Z,99614.13
2023-09-22T02:41:59.627Z,99618.31
2023-09-22T02:42:31.575Z,99617.22
2023-09-22T02:43:04.738Z,99613.88
2023-09-22T02:43:36.761Z,99616.03
2023-09-22T02:44:10.060Z,99620.69
2023-09-22T02:44:42.096Z,99616.88
2023-09-22T02:45:14.562Z,99613.88
2023-09-22T02:45:46.801Z,99619.56
2023-09-22T02:46:19.002Z,99611.13
2023-09-22T02:46:51.117Z,99616.59
2023-09-22T02:47:23.680Z,99621.25
2023-09-22T02:47:55.785Z,99626.66
2023-09-22T02:48:27.793Z,99618.47
2023-09-22T02:48:59.784Z,99617.06
2023-09-22T02:49:31.813Z,99622.03
2023-09-22T02:50:05.202Z,99623.38
2023-09-22T02:50:39.470Z,99618.47
2023-09-22T02:51:11.412Z,99611.41
2023-09-22T02:51:43.422Z,99618.53
2023-09-22T02:52:15.430Z,99617.44
2023-09-22T02:52:47.444Z,99619.56
2023-09-22T02:53:19.404Z,99623.38
2023-09-22T02:53:51.838Z,99620.06
2023-09-22T02:54:24.232Z,99620.06
2023-09-22T02:54:57.116Z,99616.50
2023-09-22T02:55:29.077Z,99621.16
2023-09-22T02:56:06.970Z,99617.91
2023-09-22T02:56:38.974Z,99617.63
2023-09-22T02:57:10.987Z,99616.25
2023-09-22T02:57:44.223Z,99618.41
2023-09-22T02:58:16.305Z,99618.41
2023-09-22T02:58:49.296Z,99612.44
2023-09-22T02:59:21.234Z,99621.72
2023-09-22T02:59:56.527Z,99616.25
2023-09-22T03:00:28.893Z,99616.72
2023-09-22T03:01:01.039Z,99611.78
2023-09-22T03:01:33.245Z,99618.31
2023-09-22T03:02:05.253Z,99615.03
2023-09-22T03:02:37.245Z,99616.94
2023-09-22T03:03:09.329Z,99608.13
2023-09-22T03:03:44.760Z,99604.09
2023-09-22T03:04:17.144Z,99615.59
2023-09-22T03:04:49.149Z,99610.13
2023-09-22T03:05:24.054Z,99608.94
2023-09-22T03:06:00.484Z,99603.47
2023-09-22T03:06:32.451Z,99603.25
2023-09-22T03:07:04.419Z,99602.34
2023-09-22T03:07:36.342Z,99601.78
2023-09-22T03:08:08.241Z,99601.78
2023-09-22T03:08:43.992Z,99595.47
2023-09-22T03:09:16.576Z,99599.59
2023-09-22T03:09:48.598Z,99596.81
2023-09-22T03:10:20.613Z,99602.03
2023-09-22T03:10:52.543Z,99596.31
2023-09-22T03:11:24.557Z,99587.78
2023-09-22T03:11:56.485Z,99593.75
2023-09-22T03:12:28.494Z,99596.47
2023-09-22T03:13:00.590Z,99598.13
2023-09-22T03:13:32.882Z,99600.13
2023-09-22T03:14:05.209Z,99600.75
2023-09-22T03:14:37.196Z,99601.00
2023-09-22T03:15:13.074Z,99593.38
2023-09-22T03:15:45.127Z,99593.97
2023-09-22T03:16:17.206Z,99595.53
2023-09-22T03:16:49.597Z,99598.63
2023-09-22T03:17:21.565Z,99596.72
2023-09-22T03:17:53.530Z,99598.28
2023-09-22T03:18:25.794Z,99596.34
2023-09-22T03:18:58.125Z,99592.53
2023-09-22T03:19:30.129Z,99592.50
2023-09-22T03:20:02.059Z,99597.91
2023-09-22T03:20:33.977Z,99597.91
2023-09-22T03:21:06.420Z,99600.38
2023-09-22T03:21:38.518Z,99591.91
2023-09-22T03:22:10.426Z,99594.97
2023-09-22T03:22:42.547Z,99596.34
2023-09-22T03:23:14.492Z,99591.09
2023-09-22T03:23:47.595Z,99592.50
2023-09-22T03:24:19.558Z,99590.28
2023-09-22T03:24:51.575Z,99585.28
2023-09-22T03:25:23.526Z,99581.66
2023-09-22T03:25:55.845Z,99583.81
2023-09-22T03:26:27.770Z,99588.78
2023-09-22T03:26:59.797Z,99588.47
2023-09-22T03:27:37.716Z,99589.81
2023-09-22T03:28:09.801Z,99585.75
2023-09-22T03:28:42.224Z,99590.94
2023-09-22T03:29:14.137Z,99589.59
2023-09-22T03:29:46.144Z,99590.69
2023-09-22T03:30:18.989Z,99594.19
2023-09-22T03:30:50.994Z,99592.28
2023-09-22T03:31:24.240Z,99586.75
2023-09-22T03:31:56.283Z,99589.81
2023-09-22T03:32:28.729Z,99587.31
2023-09-22T03:33:01.318Z,99590.63
2023-09-22T03:33:33.310Z,99585.69
2023-09-22T03:34:05.793Z,99586.50
2023-09-22T03:34:37.806Z,99588.41
2023-09-22T03:35:10.087Z,99588.97
2023-09-22T03:35:42.138Z,99586.50
2023-09-22T03:36:14.650Z,99589.50
2023-09-22T03:36:46.603Z,99591.41
2023-09-22T03:37:20.055Z,99591.97
2023-09-22T03:37:53.618Z,99598.53
2023-09-22T03:38:27.238Z,99588.91
2023-09-22T03:38:59.161Z,99593.38
2023-09-22T03:39:32.071Z,99590.63
2023-09-22T03:40:27.366Z,99591.97
2023-09-22T03:41:02.140Z,99580.72
2023-09-22T03:41:36.588Z,99593.88
2023-09-22T03:42:08.773Z,99591.66
2023-09-22T03:42:42.188Z,99590.31
2023-09-22T03:43:14.213Z,99590.63
2023-09-22T03:43:46.777Z,99584.03
2023-09-22T03:44:18.680Z,99582.38
2023-09-22T03:44:52.139Z,99584.53
2023-09-22T03:45:24.180Z,99588.56
2023-09-22T03:45:56.366Z,99587.19
2023-09-22T03:46:28.331Z,99581.19
2023-09-22T03:47:01.145Z,99587.28
2023-09-22T03:47:33.748Z,99584.28
2023-09-22T03:48:06.266Z,99586.19
2023-09-22T03:48:38.987Z,99587.00
2023-09-22T03:49:10.970Z,99585.84
2023-09-22T03:49:42.941Z,99592.13
2023-09-22T03:50:15.877Z,99586.19
2023-09-22T03:50:48.173Z,99585.09
2023-09-22T03:51:20.103Z,99582.06
2023-09-22T03:51:52.269Z,99589.41
2023-09-22T03:52:24.188Z,99580.06
2023-09-22T03:52:56.128Z,99579.56
2023-09-22T03:53:28.630Z,99587.19
2023-09-22T03:54:00.634Z,99585.84
2023-09-22T03:54:32.578Z,99585.09
2023-09-22T03:55:04.836Z,99584.03
2023-09-22T03:55:37.716Z,99590.31
2023-09-22T03:56:10.361Z,99578.47
2023-09-22T03:56:42.586Z,99583.72
2023-09-22T03:57:14.481Z,99579.63
2023-09-22T03:57:46.469Z,99585.63
2023-09-22T03:58:18.537Z,99580.72
2023-09-22T03:58:50.477Z,99585.38
2023-09-22T03:59:22.394Z,99586.19
2023-09-22T03:59:54.304Z,99591.66
2023-09-22T04:00:29.888Z,99587.28
2023-09-22T04:01:06.906Z,99607.97
2023-09-22T04:01:40.259Z,99602.59
2023-09-22T04:02:12.268Z,99592.22
2023-09-22T04:02:45.403Z,99594.13
2023-09-22T04:03:19.078Z,99591.16
2023-09-22T04:03:51.403Z,99592.78
2023-09-22T04:04:23.623Z,99593.06
2023-09-22T04:04:55.741Z,99596.59
2023-09-22T04:05:27.718Z,99589.50
2023-09-22T04:05:59.938Z,99588.41
2023-09-22T04:06:32.435Z,99601.00
2023-09-22T04:07:04.673Z,99595.53
2023-09-22T04:07:36.746Z,99592.53
2023-09-22T04:08:08.692Z,99596.59
2023-09-22T04:08:40.667Z,99587.59
2023-09-22T04:09:12.734Z,99594.97
2023-09-22T04:09:45.841Z,99586.19
2023-09-22T04:10:18.530Z,99586.75
2023-09-22T04:10:50.728Z,99595.47
2023-09-22T04:11:22.631Z,99588.66
2023-09-22T04:11:54.546Z,99593.31
2023-09-22T04:12:26.997Z,99597.13
2023-09-22T04:12:59.028Z,99603.72
2023-09-22T04:13:31.293Z,99598.19
2023-09-22T04:14:04.062Z,99601.41
2023-09-22T04:14:40.823Z,99604.66
2023-09-22T04:15:14.326Z,99610.38
2023-09-22T04:15:46.893Z,99612.84
2023-09-22T04:16:18.916Z,99607.72
2023-09-22T04:16:51.469Z,99607.97
2023-09-22T04:17:23.742Z,99605.47
2023-09-22T04:17:55.931Z,99603.00
2023-09-22T04:18:30.648Z,99596.47
2023-09-22T04:19:02.676Z,99602.50
2023-09-22T04:19:34.720Z,99603.06
2023-09-22T04:20:09.591Z,99604.41
2023-09-22T04:20:45.414Z,99599.28
2023-09-22T04:21:17.560Z,99604.41
2023-09-22T04:21:51.072Z,99603.56
2023-09-22T04:22:23.157Z,99613.38
2023-09-22T04:22:55.060Z,99604.91
2023-09-22T04:23:27.038Z,99607.91
2023-09-22T04:23:58.984Z,99615.78
2023-09-22T04:24:33.565Z,99613.88
2023-09-22T04:25:12.062Z,99612.22
2023-09-22T04:25:43.992Z,99610.88
2023-09-22T04:26:17.782Z,99613.38
2023-09-22T04:26:50.468Z,99613.09
2023-09-22T04:27:22.397Z,99613.69
2023-09-22T04:27:56.246Z,99618.88
2023-09-22T04:28:28.352Z,99618.63
2023-09-22T04:29:01.210Z,99613.94
2023-09-22T04:29:37.131Z,99619.16
2023-09-22T04:30:10.785Z,99619.97
2023-09-22T04:30:42.914Z,99615.34
2023-09-22T04:31:14.978Z,99619.97
2023-09-22T04:31:46.990Z,99618.31
2023-09-22T04:32:19.611Z,99621.16
2023-09-22T04:32:53.004Z,99613.53
2023-09-22T04:33:25.187Z,99620.06
2023-09-22T04:33:57.127Z,99619.56
2023-09-22T04:34:29.310Z,99618.78
2023-09-22T04:35:02.143Z,99615.50
2023-09-22T04:35:34.126Z,99619.06
2023-09-22T04:36:06.274Z,99610.84
2023-09-22T04:36:38.236Z,99619.06
2023-09-22T04:37:10.238Z,99619.31
2023-09-22T04:37:42.173Z,99610.84
2023-09-22T04:38:15.691Z,99608.69
2023-09-22T04:38:47.634Z,99611.41
2023-09-22T04:39:22.652Z,99607.03
2023-09-22T04:39:55.892Z,99611.41
2023-09-22T04:40:30.938Z,99621.84
2023-09-22T04:41:02.984Z,99608.69
2023-09-22T04:41:34.916Z,99616.38
2023-09-22T04:42:06.839Z,99608.75
2023-09-22T04:42:39.137Z,99606.59
2023-09-22T04:43:12.460Z,99613.47
2023-09-22T04:43:44.546Z,99618.44
2023-09-22T04:44:17.156Z,99615.19
2023-09-22T04:44:52.147Z,99610.53
2023-09-22T04:45:24.715Z,99620.16
2023-09-22T04:45:56.918Z,99611.13
2023-09-22T04:46:29.268Z,99617.16
2023-09-22T04:47:01.403Z,99610.53
2023-09-22T04:47:33.399Z,99615.50
2023-09-22T04:48:08.850Z,99621.88
2023-09-22T04:48:41.046Z,99616.66
2023-09-22T04:49:13.068Z,99623.22
2023-09-22T04:49:45.061Z,99618.88
2023-09-22T04:50:18.983Z,99619.97
2023-09-22T04:50:57.169Z,99623.53
2023-09-22T04:51:29.353Z,99621.38
2023-09-22T04:52:04.209Z,99617.91
2023-09-22T04:52:36.264Z,99621.78
2023-09-22T04:53:09.560Z,99624.00
2023-09-22T04:53:42.590Z,99625.63
2023-09-22T04:54:14.568Z,99625.06
2023-09-22T04:54:46.526Z,99628.94
2023-09-22T04:55:19.491Z,99622.69
2023-09-22T04:56:04.816Z,99637.28
2023-09-22T04:56:36.721Z,99635.13
2023-09-22T04:57:08.622Z,99642.75
2023-09-22T04:57:42.045Z,99639.50
2023-09-22T04:58:15.665Z,99637.03
2023-09-22T04:58:48.774Z,99647.16
2023-09-22T04:59:20.724Z,99647.72
2023-09-22T04:59:54.529Z,99651.03
2023-09-22T05:00:28.378Z,99649.94
2023-09-22T05:01:02.854Z,99640.34
2023-09-22T05:01:34.962Z,99640.34
2023-09-22T05:02:06.954Z,99641.72
2023-09-22T05:02:39.019Z,99642.81
2023-09-22T05:03:11.677Z,99636.31
2023-09-22T05:03:44.344Z,99635.47
2023-09-22T05:04:16.630Z,99635.72
2023-09-22T05:04:49.294Z,99635.72
2023-09-22T05:05:23.522Z,99641.78
2023-09-22T05:05:56.060Z,99641.25
2023-09-22T05:06:29.237Z,99638.78
2023-09-22T05:07:01.246Z,99642.13
2023-09-22T05:07:34.849Z,99647.06
2023-09-22T05:08:06.842Z,99641.59
2023-09-22T05:08:38.860Z,99642.16
2023-09-22T05:09:12.110Z,99640.81
2023-09-22T05:09:45.158Z,99648.25
2023-09-22T05:10:17.403Z,99644.44
2023-09-22T05:10:49.356Z,99648.56
2023-09-22T05:11:21.652Z,99644.69
2023-09-22T05:11:53.594Z,99642.00
2023-09-22T05:12:25.609Z,99648.91
2023-09-22T05:13:00.107Z,99646.16
2023-09-22T05:13:34.231Z,99643.16
2023-09-22T05:14:06.144Z,99648.94
2023-09-22T05:14:38.239Z,99650.03
2023-09-22T05:15:10.824Z,99648.91
2023-09-22T05:15:44.626Z,99646.91
2023-09-22T05:16:19.551Z,99649.13
2023-09-22T05:16:52.149Z,99646.97
2023-09-22T05:17:24.479Z,99650.53
2023-09-22T05:17:56.524Z,99649.47
2023-09-22T05:18:28.511Z,99646.97
2023-09-22T05:19:03.850Z,99646.97
2023-09-22T05:19:35.793Z,99644.47
2023-09-22T05:20:13.576Z,99642.00
2023-09-22T05:20:46.044Z,99645.31
2023-09-22T05:21:18.281Z,99643.66
2023-09-22T05:21:50.232Z,99643.72
2023-09-22T05:22:22.340Z,99648.13
2023-09-22T05:22:54.310Z,99646.72
2023-09-22T05:23:26.252Z,99648.94
2023-09-22T05:23:58.171Z,99636.59
2023-09-22T05:24:30.489Z,99639.81
2023-09-22T05:25:02.474Z,99643.66
2023-09-22T05:25:39.615Z,99638.97
2023-09-22T05:26:11.558Z,99640.31
2023-09-22T05:26:43.627Z,99645.78
2023-09-22T05:27:16.455Z,99643.31
2023-09-22T05:27:49.424Z,99643.66
2023-09-22T05:28:21.400Z,99646.97
2023-09-22T05:28:53.334Z,99647.28
2023-09-22T05:29:25.300Z,99647.56
2023-09-22T05:29:57.232Z,99651.28
2023-09-22T05:30:29.656Z,99647.47
2023-09-22T05:31:01.975Z,99647.47
2023-09-22T05:31:37.687Z,99645.81
2023-09-22T05:32:10.895Z,99646.38
2023-09-22T05:32:49.531Z,99635.66
2023-09-22T05:33:21.573Z,99641.75
2023-09-22T05:33:53.941Z,99639.22
2023-09-22T05:34:25.952Z,99634.03
2023-09-22T05:34:58.911Z,99632.69
2023-09-22T05:35:30.980Z,99642.56
2023-09-22T05:36:06.290Z,99636.53
2023-09-22T05:36:41.431Z,99634.13
2023-09-22T05:37:13.367Z,99637.69
2023-09-22T05:37:52.095Z,99629.72
2023-09-22T05:38:24.104Z,99633.78
2023-09-22T05:38:56.068Z,99629.97
2023-09-22T05:39:28.182Z,99635.50
2023-09-22T05:40:00.718Z,99631.94
2023-09-22T05:40:36.047Z,99627.56
2023-09-22T05:41:10.188Z,99635.00
2023-09-22T05:41:49.052Z,99629.81
2023-09-22T05:42:20.971Z,99635.03
2023-09-22T05:42:53.045Z,99634.50
2023-09-22T05:43:25.089Z,99637.25
2023-09-22T05:43:57.794Z,99631.03
2023-09-22T05:44:30.447Z,99636.72
2023-09-22T05:45:06.242Z,99635.06
2023-09-22T05:45:38.346Z,99632.91
2023-09-22T05:46:10.398Z,99637.00
2023-09-22T05:46:42.576Z,99629.59
2023-09-22T05:47:14.538Z,99628.84
2023-09-22T05:47:46.570Z,99627.56
2023-09-22T05:48:18.584Z,99630.88
2023-09-22T05:48:50.786Z,99634.97
2023-09-22T05:49:23.035Z,99627.03
2023-09-22T05:49:55.136Z,99633.34
2023-09-22T05:50:27.094Z,99635.28
2023-09-22T05:51:01.024Z,99635.56
2023-09-22T05:51:33.596Z,99640.22
2023-09-22T05:52:05.634Z,99644.00
2023-09-22T05:52:41.456Z,99644.56
2023-09-22T05:53:15.045Z,99644.09
2023-09-22T05:53:46.971Z,99643.00
2023-09-22T05:54:18.917Z,99646.88
2023-09-22T05:54:50.982Z,99647.47
2023-09-22T05:55:29.173Z,99651.03
2023-09-22T05:56:09.701Z,99644.78
2023-09-22T05:56:41.878Z,99653.00
2023-09-22T05:57:13.971Z,99648.03
2023-09-22T05:57:47.272Z,99654.09
2023-09-22T05:58:19.246Z,99643.66
2023-09-22T05:58:51.169Z,99649.75
2023-09-22T05:59:23.530Z,99648.13
2023-09-22T05:59:56.814Z,99652.53
2023-09-22T06:00:32.350Z,99651.97
2023-09-22T06:01:08.713Z,99651.97
2023-09-22T06:01:41.063Z,99647.28
2023-09-22T06:02:13.062Z,99651.16
2023-09-22T06:02:48.817Z,99648.97
2023-09-22T06:03:21.698Z,99653.88
2023-09-22T06:03:53.735Z,99655.84
2023-09-22T06:04:26.404Z,99652.00
2023-09-22T06:04:59.903Z,99649.78
2023-09-22T06:05:32.855Z,99653.31
2023-09-22T06:06:12.546Z,99653.06
2023-09-22T06:06:44.692Z,99653.91
2023-09-22T06:07:16.618Z,99661.03
2023-09-22T06:07:48.558Z,99663.22
2023-09-22T06:08:20.470Z,99656.16
2023-09-22T06:08:52.417Z,99653.47
2023-09-22T06:09:24.326Z,99658.69
2023-09-22T06:09:56.277Z,99658.16
2023-09-22T06:10:28.229Z,99662.00
2023-09-22T06:11:02.890Z,99656.84
2023-09-22T06:11:34.801Z,99655.25
2023-09-22T06:12:07.585Z,99656.91
2023-09-22T06:12:39.578Z,99661.56
2023-09-22T06:13:11.553Z,99663.50
2023-09-22T06:13:43.919Z,99668.19
2023-09-22T06:14:16.920Z,99667.16
2023-09-22T06:14:48.870Z,99659.25
2023-09-22T06:15:20.777Z,99668.84
2023-09-22T06:15:53.198Z,99674.09
2023-09-22T06:16:27.117Z,99669.72
2023-09-22T06:16:59.136Z,99670.00
2023-09-22T06:17:31.518Z,99666.16
2023-09-22T06:18:06.132Z,99666.44
2023-09-22T06:18:38.988Z,99673.00
2023-09-22T06:19:11.788Z,99665.88
2023-09-22T06:19:43.787Z,99673.91
2023-09-22T06:20:17.266Z,99684.34
2023-09-22T06:20:50.308Z,99675.31
2023-09-22T06:21:22.464Z,99671.19
2023-09-22T06:21:54.437Z,99676.13
2023-09-22T06:22:27.085Z,99673.38
2023-09-22T06:22:59.070Z,99676.66
2023-09-22T06:23:31.549Z,99670.09
2023-09-22T06:24:03.656Z,99677.84
2023-09-22T06:24:35.756Z,99677.56